createdAt,value
2022-11-10T00:00:08.178Z,4.7
2022-11-10T00:01:16.543Z,4.7
2022-11-10T00:02:25.074Z,6.5
2022-11-10T00:03:33.416Z,6.5
2022-11-10T00:04:41.771Z,6.5
2022-11-10T00:05:50.338Z,7.7
2022-11-10T00:06:59.465Z,7.7
2022-11-10T00:08:07.766Z,7.7
2022-11-10T00:09:16.329Z,5.4
2022-11-10T00:10:24.666Z,5.4
2022-11-10T00:11:33.005Z,5.4
2022-11-10T00:12:41.555Z,7.8
2022-11-10T00:13:49.900Z,7.8
2022-11-10T00:14:58.240Z,7.8
2022-11-10T00:16:06.789Z,6.7
2022-11-10T00:17:15.132Z,6.7
2022-11-10T00:18:23.466Z,6.7
2022-11-10T00:19:32.023Z,7
2022-11-10T00:20:40.354Z,7
2022-11-10T00:21:48.780Z,7
2022-11-10T00:22:57.281Z,6.4
2022-11-10T00:24:05.630Z,6.4
2022-11-10T00:25:13.965Z,6.4
2022-11-10T00:26:22.522Z,4.7
2022-11-10T00:27:30.862Z,4.7
2022-11-10T00:28:39.200Z,4.7
2022-11-10T00:29:47.737Z,5.1
2022-11-10T00:30:56.075Z,5.1
2022-11-10T00:32:04.416Z,5.1
2022-11-10T00:33:12.958Z,4.5
2022-11-10T00:34:21.309Z,4.5
2022-11-10T00:35:29.659Z,4.5
2022-11-10T00:36:38.192Z,6.7
2022-11-10T00:37:46.553Z,6.7
2022-11-10T00:38:54.867Z,6.7
2022-11-10T00:40:03.411Z,5.2
2022-11-10T00:41:11.762Z,5.2
2022-11-10T00:42:20.083Z,5.2
2022-11-10T00:43:29.109Z,7.8
2022-11-10T00:44:36.965Z,7.8
2022-11-10T00:45:45.301Z,7.8
2022-11-10T00:46:53.852Z,5.3
2022-11-10T00:48:02.198Z,5.3
2022-11-10T00:49:10.540Z,5.3
2022-11-10T00:50:19.082Z,7.7
2022-11-10T00:51:27.418Z,7.7
2022-11-10T00:52:35.758Z,7.7
2022-11-10T00:53:44.341Z,5.2
2022-11-10T00:54:52.643Z,5.2
2022-11-10T00:56:00.987Z,5.2
2022-11-10T00:57:09.526Z,7.4
2022-11-10T00:58:17.871Z,7.4
2022-11-10T00:59:26.217Z,7.4
2022-11-10T01:00:34.743Z,9.1
2022-11-10T01:01:43.077Z,9.1
2022-11-10T01:02:51.418Z,9.1
2022-11-10T01:03:59.965Z,7.2
2022-11-10T01:05:08.296Z,7.2
2022-11-10T01:06:16.640Z,7.2
2022-11-10T01:07:25.194Z,7.1
2022-11-10T01:08:33.534Z,7.1
2022-11-10T01:09:41.899Z,7.1
2022-11-10T01:10:50.413Z,4.6
2022-11-10T01:11:58.739Z,4.6
2022-11-10T01:13:07.081Z,4.6
2022-11-10T01:14:15.633Z,4.3
2022-11-10T01:15:27.476Z,4.3
2022-11-10T01:16:32.298Z,4.3
2022-11-10T01:17:40.830Z,3.8
2022-11-10T01:18:49.185Z,3.8
2022-11-10T01:19:57.510Z,3.8
2022-11-10T01:21:06.057Z,4.1
2022-11-10T01:22:14.399Z,4.1
2022-11-10T01:23:23.069Z,4.1
2022-11-10T01:24:31.356Z,5.5
2022-11-10T01:25:39.713Z,5.5
2022-11-10T01:26:48.035Z,5.5
2022-11-10T01:27:56.584Z,4.7
2022-11-10T01:29:04.936Z,4.7
2022-11-10T01:30:13.257Z,4.7
2022-11-10T01:31:21.799Z,4.9
2022-11-10T01:32:30.139Z,4.9
2022-11-10T01:33:38.481Z,4.9
2022-11-10T01:34:47.022Z,8.2
2022-11-10T01:35:55.356Z,8.2
2022-11-10T01:37:03.791Z,8.2
2022-11-10T01:38:12.339Z,11.3
2022-11-10T01:39:20.672Z,11.3
2022-11-10T01:40:29.031Z,11.3
2022-11-10T01:41:37.573Z,10.4
2022-11-10T01:42:45.916Z,10.4
2022-11-10T01:43:54.241Z,10.4
2022-11-10T01:45:02.832Z,14.6
2022-11-10T01:46:11.176Z,14.6
2022-11-10T01:47:19.522Z,14.6
2022-11-10T01:48:28.070Z,12.3
2022-11-10T01:49:36.414Z,12.3
2022-11-10T01:50:44.756Z,12.3
2022-11-10T01:51:53.295Z,6.6
2022-11-10T01:53:01.641Z,6.6
2022-11-10T01:54:10.000Z,6.6
2022-11-10T01:55:18.558Z,9.9
2022-11-10T01:56:26.886Z,9.9
2022-11-10T01:57:35.281Z,9.9
2022-11-10T01:58:43.819Z,10.7
2022-11-10T01:59:52.155Z,10.7
2022-11-10T02:01:00.544Z,10.7
2022-11-10T02:02:09.038Z,6.1
2022-11-10T02:03:17.379Z,6.1
2022-11-10T02:04:25.718Z,6.1
2022-11-10T02:05:34.254Z,8.2
2022-11-10T02:06:42.617Z,8.2
2022-11-10T02:07:50.924Z,8.2
2022-11-10T02:08:59.471Z,6.9
2022-11-10T02:10:07.803Z,6.9
2022-11-10T02:11:16.140Z,6.9
2022-11-10T02:12:24.676Z,10.3
2022-11-10T02:13:33.042Z,10.3
2022-11-10T02:14:41.347Z,10.3
2022-11-10T02:15:49.897Z,6.8
2022-11-10T02:16:58.239Z,6.8
2022-11-10T02:18:06.574Z,6.8
2022-11-10T02:19:15.113Z,6.6
2022-11-10T02:20:23.449Z,6.6
2022-11-10T02:21:31.831Z,6.6
2022-11-10T02:22:40.387Z,5.8
2022-11-10T02:23:48.715Z,5.8
2022-11-10T02:24:57.106Z,5.8
2022-11-10T02:26:05.649Z,6.4
2022-11-10T02:27:13.987Z,6.4
2022-11-10T02:28:22.333Z,6.4
2022-11-10T02:29:30.893Z,5.8
2022-11-10T02:30:39.208Z,5.8
2022-11-10T02:31:47.542Z,5.8
2022-11-10T02:32:56.103Z,10.3
2022-11-10T02:34:04.453Z,10.3
2022-11-10T02:35:12.776Z,10.3
2022-11-10T02:36:21.320Z,8.3
2022-11-10T02:37:29.658Z,8.3
2022-11-10T02:38:38.011Z,8.3
2022-11-10T02:39:46.557Z,5.9
2022-11-10T02:40:54.893Z,5.9
2022-11-10T02:42:03.227Z,5.9
2022-11-10T02:43:11.770Z,6.2
2022-11-10T02:44:20.109Z,6.2
2022-11-10T02:45:28.461Z,6.2
2022-11-10T02:46:36.988Z,5.7
2022-11-10T02:47:45.329Z,5.7
2022-11-10T02:48:53.672Z,5.7
2022-11-10T02:50:02.216Z,6.4
2022-11-10T02:51:10.557Z,6.4
2022-11-10T02:52:18.889Z,6.4
2022-11-10T02:53:27.447Z,7.5
2022-11-10T02:54:35.792Z,7.5
2022-11-10T02:55:44.115Z,7.5
2022-11-10T02:56:52.659Z,9.5
2022-11-10T02:58:01.008Z,9.5
2022-11-10T02:59:09.348Z,9.5
2022-11-10T03:00:17.888Z,5.9
2022-11-10T03:01:26.281Z,5.9
2022-11-10T03:02:34.562Z,5.9
2022-11-10T03:03:43.113Z,5.9
2022-11-10T03:04:51.437Z,5.9
2022-11-10T03:05:59.838Z,5.9
2022-11-10T03:07:08.381Z,6.9
2022-11-10T03:08:16.738Z,6.9
2022-11-10T03:09:25.089Z,6.9
2022-11-10T03:10:33.636Z,7.4
2022-11-10T03:11:41.968Z,7.4
2022-11-10T03:12:50.315Z,7.4
2022-11-10T03:14:01.773Z,5.1
2022-11-10T03:15:07.190Z,5.1
2022-11-10T03:16:15.546Z,5.1
2022-11-10T03:17:24.151Z,7.6
2022-11-10T03:18:32.515Z,7.6
2022-11-10T03:19:40.860Z,7.6
2022-11-10T03:20:49.414Z,6.4
2022-11-10T03:21:57.771Z,6.4
2022-11-10T03:23:06.138Z,6.4
2022-11-10T03:24:14.713Z,9
2022-11-10T03:25:23.049Z,9
2022-11-10T03:26:31.384Z,9
2022-11-10T03:27:39.975Z,7.6
2022-11-10T03:28:48.329Z,7.6
2022-11-10T03:29:56.680Z,7.6
2022-11-10T03:31:05.221Z,5.6
2022-11-10T03:32:13.554Z,5.6
2022-11-10T03:33:22.197Z,5.6
2022-11-10T03:34:31.879Z,7.8
2022-11-10T03:35:38.812Z,7.8
2022-11-10T03:36:47.176Z,7.8
2022-11-10T03:37:55.730Z,10.9
2022-11-10T03:39:04.103Z,10.9
2022-11-10T03:40:12.447Z,10.9
2022-11-10T03:41:21.190Z,10.2
2022-11-10T03:42:29.326Z,10.2
2022-11-10T03:43:37.700Z,10.2
2022-11-10T03:44:46.245Z,9.5
2022-11-10T03:45:54.587Z,9.5
2022-11-10T03:47:02.945Z,9.5
2022-11-10T03:48:11.524Z,6.9
2022-11-10T03:49:19.920Z,6.9
2022-11-10T03:50:28.227Z,6.9
2022-11-10T03:51:36.810Z,7.6
2022-11-10T03:52:45.156Z,7.6
2022-11-10T03:53:53.492Z,7.6
2022-11-10T03:55:03.438Z,8.1
2022-11-10T03:56:10.420Z,8.1
2022-11-10T03:57:18.751Z,8.1
2022-11-10T03:58:27.329Z,10.9
2022-11-10T03:59:35.708Z,10.9
2022-11-10T04:00:44.050Z,10.9
2022-11-10T04:01:52.801Z,7.5
2022-11-10T04:03:00.983Z,7.5
2022-11-10T04:04:09.369Z,7.5
2022-11-10T04:05:17.937Z,6.5
2022-11-10T04:06:26.246Z,6.5
2022-11-10T04:07:34.583Z,6.5
2022-11-10T04:08:43.140Z,8.9
2022-11-10T04:09:51.463Z,8.9
2022-11-10T04:10:59.831Z,8.9
2022-11-10T04:12:08.405Z,9.4
2022-11-10T04:13:16.746Z,9.4
2022-11-10T04:14:25.098Z,9.4
2022-11-10T04:15:33.662Z,7.8
2022-11-10T04:16:42.016Z,7.8
2022-11-10T04:17:50.377Z,7.8
2022-11-10T04:18:58.916Z,8.5
2022-11-10T04:20:07.260Z,8.5
2022-11-10T04:21:15.623Z,8.5
2022-11-10T04:22:24.184Z,6.6
2022-11-10T04:23:32.512Z,6.6
2022-11-10T04:24:40.860Z,6.6
2022-11-10T04:25:49.442Z,7.2
2022-11-10T04:26:57.779Z,7.2
2022-11-10T04:28:06.133Z,7.2
2022-11-10T04:29:14.676Z,9.7
2022-11-10T04:30:23.011Z,9.7
2022-11-10T04:31:31.343Z,9.7
2022-11-10T04:32:39.909Z,8.6
2022-11-10T04:33:48.238Z,8.6
2022-11-10T04:34:56.573Z,8.6
2022-11-10T04:36:05.111Z,12.2
2022-11-10T04:37:13.473Z,12.2
2022-11-10T04:38:21.787Z,12.2
2022-11-10T04:39:30.333Z,16.299999
2022-11-10T04:40:38.664Z,16.299999
2022-11-10T04:41:47.034Z,16.299999
2022-11-10T04:42:55.673Z,16.5
2022-11-10T04:44:03.977Z,16.5
2022-11-10T04:45:12.310Z,16.5
2022-11-10T04:46:20.860Z,12.2
2022-11-10T04:47:29.186Z,12.2
2022-11-10T04:48:37.534Z,12.2
2022-11-10T04:49:46.155Z,9.7
2022-11-10T04:50:54.470Z,9.7
2022-11-10T04:52:02.907Z,9.7
2022-11-10T04:53:11.430Z,16.5
2022-11-10T04:54:19.754Z,16.5
2022-11-10T04:55:28.114Z,16.5
2022-11-10T04:56:36.669Z,19.6
2022-11-10T04:57:45.015Z,19.6
2022-11-10T04:58:53.395Z,19.6
2022-11-10T05:00:01.936Z,15.3
2022-11-10T05:01:10.330Z,15.3
2022-11-10T05:02:18.638Z,15.3
2022-11-10T05:03:27.202Z,15.4
2022-11-10T05:04:35.561Z,15.4
2022-11-10T05:05:43.892Z,15.4
2022-11-10T05:06:52.482Z,16.299999
2022-11-10T05:08:00.798Z,16.299999
2022-11-10T05:09:09.163Z,16.299999
2022-11-10T05:10:17.682Z,7.6
2022-11-10T05:11:26.064Z,7.6
2022-11-10T05:12:34.404Z,7.6
2022-11-10T05:13:42.943Z,7.4
2022-11-10T05:14:51.300Z,7.4
2022-11-10T05:15:59.655Z,7.4
2022-11-10T05:17:08.201Z,9.8
2022-11-10T05:18:16.541Z,9.8
2022-11-10T05:19:24.891Z,9.8
2022-11-10T05:20:33.450Z,8.2
2022-11-10T05:21:41.822Z,8.2
2022-11-10T05:22:50.149Z,8.2
2022-11-10T05:23:58.702Z,5.7
2022-11-10T05:25:07.097Z,5.7
2022-11-10T05:26:15.442Z,5.7
2022-11-10T05:27:23.993Z,8.1
2022-11-10T05:28:32.352Z,8.1
2022-11-10T05:29:40.723Z,8.1
2022-11-10T05:30:49.277Z,8.2
2022-11-10T05:31:57.634Z,8.2
2022-11-10T05:33:05.943Z,8.2
2022-11-10T05:34:14.508Z,7.5
2022-11-10T05:35:22.851Z,7.5
2022-11-10T05:36:31.227Z,7.5
2022-11-10T05:37:39.767Z,7.5
2022-11-10T05:38:48.120Z,7.5
2022-11-10T05:39:56.474Z,7.5
2022-11-10T05:41:05.044Z,6.4
2022-11-10T05:42:13.356Z,6.4
2022-11-10T05:43:22.041Z,6.4
2022-11-10T05:44:30.239Z,10.5
2022-11-10T05:45:38.581Z,10.5
2022-11-10T05:46:46.948Z,10.5
2022-11-10T05:47:55.490Z,7
2022-11-10T05:49:03.835Z,7
2022-11-10T05:50:12.212Z,7
2022-11-10T05:51:20.765Z,9.4
2022-11-10T05:52:29.108Z,9.4
2022-11-10T05:53:37.452Z,9.4
2022-11-10T05:54:45.983Z,9.1
2022-11-10T05:55:54.318Z,9.1
2022-11-10T05:57:02.678Z,9.1
2022-11-10T05:58:11.199Z,10.3
2022-11-10T05:59:19.530Z,10.3
2022-11-10T06:00:27.872Z,10.3
2022-11-10T06:01:36.429Z,12.7
2022-11-10T06:02:44.762Z,12.7
2022-11-10T06:03:53.113Z,12.7
2022-11-10T06:05:01.682Z,11.1
2022-11-10T06:06:10.041Z,11.1
2022-11-10T06:07:18.376Z,11.1
2022-11-10T06:08:26.926Z,15.4
2022-11-10T06:09:35.261Z,15.4
2022-11-10T06:10:43.603Z,15.4
2022-11-10T06:11:52.149Z,15.9
2022-11-10T06:13:00.503Z,15.9
2022-11-10T06:14:08.808Z,15.9
2022-11-10T06:15:17.379Z,9.2
2022-11-10T06:16:25.730Z,9.2
2022-11-10T06:17:34.080Z,9.2
2022-11-10T06:18:42.653Z,10.4
2022-11-10T06:19:50.992Z,10.4
2022-11-10T06:20:59.395Z,10.4
2022-11-10T06:22:08.152Z,15
2022-11-10T06:23:16.280Z,15
2022-11-10T06:24:24.651Z,15
2022-11-10T06:25:33.222Z,8.2
2022-11-10T06:26:41.560Z,8.2
2022-11-10T06:27:49.899Z,8.2
2022-11-10T06:28:58.476Z,9.1
2022-11-10T06:30:06.831Z,9.1
2022-11-10T06:31:15.206Z,9.1
2022-11-10T06:32:23.751Z,9.9
2022-11-10T06:33:32.100Z,9.9
2022-11-10T06:34:40.460Z,9.9
2022-11-10T06:35:48.997Z,9.6
2022-11-10T06:36:57.354Z,9.6
2022-11-10T06:38:05.676Z,9.6
2022-11-10T06:39:14.227Z,10.6
2022-11-10T06:40:22.563Z,10.6
2022-11-10T06:41:30.918Z,10.6
2022-11-10T06:42:39.462Z,7.7
2022-11-10T06:43:47.798Z,7.7
2022-11-10T06:44:56.164Z,7.7
2022-11-10T06:46:04.705Z,9.6
2022-11-10T06:47:13.064Z,9.6
2022-11-10T06:48:21.427Z,9.6
2022-11-10T06:49:29.978Z,9
2022-11-10T06:50:38.313Z,9
2022-11-10T06:51:46.664Z,9
2022-11-10T06:52:55.209Z,8.9
2022-11-10T06:54:03.573Z,8.9
2022-11-10T06:55:11.913Z,8.9
2022-11-10T06:56:20.468Z,8.5
2022-11-10T06:57:28.834Z,8.5
2022-11-10T06:58:37.201Z,8.5
2022-11-10T06:59:45.803Z,8.7
2022-11-10T07:00:54.213Z,8.7
2022-11-10T07:02:02.495Z,8.7
2022-11-10T07:03:11.059Z,7.7
2022-11-10T07:04:20.617Z,7.7
2022-11-10T07:05:27.765Z,7.7
2022-11-10T07:06:36.408Z,8.7
2022-11-10T07:07:44.699Z,8.7
2022-11-10T07:08:53.081Z,8.7
2022-11-10T07:10:05.749Z,8.3
2022-11-10T07:11:10.011Z,8.3
2022-11-10T07:12:18.335Z,8.3
2022-11-10T07:13:26.937Z,7.7
2022-11-10T07:14:35.280Z,7.7
2022-11-10T07:15:43.642Z,7.7
2022-11-10T07:16:52.236Z,7.1
2022-11-10T07:18:00.561Z,7.1
2022-11-10T07:19:08.918Z,7.1
2022-11-10T07:20:17.484Z,7.5
2022-11-10T07:21:25.831Z,7.5
2022-11-10T07:22:34.174Z,7.5
2022-11-10T07:23:42.744Z,9.6
2022-11-10T07:24:51.110Z,9.6
2022-11-10T07:25:59.436Z,9.6
2022-11-10T07:27:07.983Z,7
2022-11-10T07:28:16.339Z,7
2022-11-10T07:29:24.722Z,7
2022-11-10T07:30:33.288Z,8.3
2022-11-10T07:31:41.623Z,8.3
2022-11-10T07:32:49.990Z,8.3
2022-11-10T07:33:58.519Z,8
2022-11-10T07:35:06.883Z,8
2022-11-10T07:36:15.206Z,8
2022-11-10T07:37:23.782Z,8.5
2022-11-10T07:38:32.124Z,8.5
2022-11-10T07:39:40.488Z,8.5
2022-11-10T07:40:49.041Z,11.4
2022-11-10T07:41:57.381Z,11.4
2022-11-10T07:43:05.715Z,11.4
2022-11-10T07:44:14.266Z,9
2022-11-10T07:45:22.608Z,9
2022-11-10T07:46:30.961Z,9
2022-11-10T07:47:39.514Z,8.4
2022-11-10T07:48:47.881Z,8.4
2022-11-10T07:49:56.199Z,8.4
2022-11-10T07:51:04.744Z,9.1
2022-11-10T07:52:13.108Z,9.1
2022-11-10T07:53:21.824Z,9.1
2022-11-10T07:54:30.026Z,8.1
2022-11-10T07:55:38.367Z,8.1
2022-11-10T07:56:46.709Z,8.1
2022-11-10T07:57:55.288Z,7.8
2022-11-10T07:59:03.608Z,7.8
2022-11-10T08:00:11.962Z,7.8
2022-11-10T08:01:20.568Z,8.7
2022-11-10T08:02:28.866Z,8.7
2022-11-10T08:03:37.209Z,8.7
2022-11-10T08:04:45.793Z,8
2022-11-10T08:05:54.111Z,8
2022-11-10T08:07:02.545Z,8
2022-11-10T08:08:11.000Z,7.9
2022-11-10T08:09:19.362Z,7.9
2022-11-10T08:10:27.788Z,7.9
2022-11-10T08:11:36.283Z,9.5
2022-11-10T08:12:44.618Z,9.5
2022-11-10T08:13:52.976Z,9.5
2022-11-10T08:15:01.530Z,7.1
2022-11-10T08:16:09.901Z,7.1
2022-11-10T08:17:18.238Z,7.1
2022-11-10T08:18:29.659Z,5.7
2022-11-10T08:19:35.175Z,5.7
2022-11-10T08:20:43.571Z,5.7
2022-11-10T08:21:52.106Z,5.9
2022-11-10T08:23:00.452Z,5.9
2022-11-10T08:24:08.815Z,5.9
2022-11-10T08:25:17.387Z,6.3
2022-11-10T08:26:25.734Z,6.3
2022-11-10T08:27:34.076Z,6.3
2022-11-10T08:28:42.643Z,8.6
2022-11-10T08:29:50.984Z,8.6
2022-11-10T08:31:02.908Z,8.6
2022-11-10T08:32:07.878Z,9.2
2022-11-10T08:33:16.240Z,9.2
2022-11-10T08:34:24.588Z,9.2
2022-11-10T08:35:33.154Z,8.8
2022-11-10T08:36:41.519Z,8.8
2022-11-10T08:37:49.828Z,8.8
2022-11-10T08:38:58.406Z,7.2
2022-11-10T08:40:06.728Z,7.2
2022-11-10T08:41:15.099Z,7.2
2022-11-10T08:42:23.639Z,7.5
2022-11-10T08:43:32.002Z,7.5
2022-11-10T08:44:40.332Z,7.5
2022-11-10T08:45:48.890Z,7.7
2022-11-10T08:46:57.219Z,7.7
2022-11-10T08:48:05.607Z,7.7
2022-11-10T08:49:14.130Z,8.3
2022-11-10T08:50:22.511Z,8.3
2022-11-10T08:51:33.713Z,8.3
2022-11-10T08:52:39.415Z,6.7
2022-11-10T08:53:47.728Z,6.7
2022-11-10T08:54:56.077Z,6.7
2022-11-10T08:56:04.645Z,7.9
2022-11-10T08:57:12.994Z,7.9
2022-11-10T08:58:21.344Z,7.9
2022-11-10T08:59:29.890Z,9.1
2022-11-10T09:00:38.265Z,9.1
2022-11-10T09:01:46.597Z,9.1
2022-11-10T09:02:55.158Z,7.8
2022-11-10T09:04:03.491Z,7.8
2022-11-10T09:05:11.886Z,7.8
2022-11-10T09:06:20.460Z,8.2
2022-11-10T09:07:28.808Z,8.2
2022-11-10T09:08:37.202Z,8.2
2022-11-10T09:09:57.156Z,8
2022-11-10T09:10:54.060Z,8
2022-11-10T09:12:02.404Z,8
2022-11-10T09:13:10.948Z,8.4
2022-11-10T09:14:19.308Z,8.4
2022-11-10T09:15:27.659Z,8.4
2022-11-10T09:16:36.209Z,7.3
2022-11-10T09:17:44.638Z,7.3
2022-11-10T09:18:52.908Z,7.3
2022-11-10T09:20:01.498Z,7
2022-11-10T09:21:09.816Z,7
2022-11-10T09:22:18.179Z,7
2022-11-10T09:23:26.721Z,6.9
2022-11-10T09:24:35.115Z,6.9
2022-11-10T09:25:43.438Z,6.9
2022-11-10T09:26:51.975Z,7.4
2022-11-10T09:28:00.342Z,7.4
2022-11-10T09:29:08.707Z,7.4
2022-11-10T09:30:18.040Z,7.9
2022-11-10T09:31:25.625Z,7.9
2022-11-10T09:32:33.978Z,7.9
2022-11-10T09:33:42.533Z,8.6
2022-11-10T09:34:53.038Z,8.6
2022-11-10T09:35:59.215Z,8.6
2022-11-10T09:37:07.766Z,7.8
2022-11-10T09:38:16.131Z,7.8
2022-11-10T09:39:24.514Z,7.8
2022-11-10T09:40:33.103Z,9.4
2022-11-10T09:41:41.432Z,9.4
2022-11-10T09:42:49.792Z,9.4
2022-11-10T09:43:58.334Z,8.3
2022-11-10T09:45:06.695Z,8.3
2022-11-10T09:46:15.039Z,8.3
2022-11-10T09:47:42.718Z,6.6
2022-11-10T09:48:31.923Z,6.6
2022-11-10T09:49:40.282Z,6.6
2022-11-10T09:50:48.820Z,9.1
2022-11-10T09:51:57.153Z,9.1
2022-11-10T09:53:05.487Z,9.1
2022-11-10T09:54:14.061Z,10.6
2022-11-10T09:55:22.391Z,10.6
2022-11-10T09:56:30.765Z,10.6
2022-11-10T09:57:39.271Z,10.5
2022-11-10T09:58:47.647Z,10.5
2022-11-10T09:59:55.972Z,10.5
2022-11-10T10:01:04.556Z,8.3
2022-11-10T10:02:12.865Z,8.3
2022-11-10T10:03:21.225Z,8.3
2022-11-10T10:04:29.784Z,8
2022-11-10T10:05:38.116Z,8
2022-11-10T10:07:05.264Z,8
2022-11-10T10:07:55.067Z,7.8
2022-11-10T10:09:03.378Z,7.8
2022-11-10T10:10:16.076Z,7.8
2022-11-10T10:11:20.260Z,7.1
2022-11-10T10:12:28.635Z,7.1
2022-11-10T10:13:36.954Z,7.1
2022-11-10T10:14:45.523Z,10.3
2022-11-10T10:15:53.858Z,10.3
2022-11-10T10:17:02.208Z,10.3
2022-11-10T10:18:10.743Z,8.3
2022-11-10T10:19:19.107Z,8.3
2022-11-10T10:20:27.450Z,8.3
2022-11-10T10:21:36.014Z,10
2022-11-10T10:22:44.346Z,10
2022-11-10T10:24:11.268Z,10
2022-11-10T10:25:01.252Z,6.4
2022-11-10T10:26:09.590Z,6.4
2022-11-10T10:27:17.934Z,6.4
2022-11-10T10:28:26.509Z,8.7
2022-11-10T10:29:37.556Z,8.7
2022-11-10T10:30:43.197Z,8.7
2022-11-10T10:31:51.776Z,7.6
2022-11-10T10:33:00.106Z,7.6
2022-11-10T10:34:08.477Z,7.6
2022-11-10T10:35:17.027Z,6.8
2022-11-10T10:36:25.409Z,6.8
2022-11-10T10:37:33.743Z,6.8
2022-11-10T10:38:42.318Z,9.4
2022-11-10T10:39:50.681Z,9.4
2022-11-10T10:40:59.040Z,9.4
2022-11-10T10:42:07.615Z,8.6
2022-11-10T10:43:15.971Z,8.6
2022-11-10T10:44:24.346Z,8.6
2022-11-10T10:45:32.910Z,8.2
2022-11-10T10:46:41.242Z,8.2
2022-11-10T10:47:49.584Z,8.2
2022-11-10T10:49:22.490Z,9.7
2022-11-10T10:50:06.509Z,9.7
2022-11-10T10:51:14.850Z,9.7
2022-11-10T10:52:23.405Z,9.6
2022-11-10T10:53:31.760Z,9.6
2022-11-10T10:54:40.090Z,9.6
2022-11-10T10:55:48.699Z,5.1
2022-11-10T10:56:57.047Z,5.1
2022-11-10T10:58:05.389Z,5.1
2022-11-10T10:59:13.974Z,8.7
2022-11-10T11:00:22.402Z,8.7
2022-11-10T11:01:30.722Z,8.7
2022-11-10T11:02:39.219Z,8.2
2022-11-10T11:03:47.569Z,8.2
2022-11-10T11:04:55.933Z,8.2
2022-11-10T11:06:04.518Z,7.9
2022-11-10T11:07:12.857Z,7.9
2022-11-10T11:08:21.535Z,7.9
2022-11-10T11:09:29.796Z,7.8
2022-11-10T11:10:38.139Z,7.8
2022-11-10T11:11:46.486Z,7.8
2022-11-10T11:12:55.524Z,6.8
2022-11-10T11:14:03.880Z,6.8
2022-11-10T11:15:12.235Z,6.8
2022-11-10T11:16:20.835Z,10.6
2022-11-10T11:17:29.186Z,10.6
2022-11-10T11:18:37.500Z,10.6
2022-11-10T11:19:46.060Z,9.1
2022-11-10T11:20:54.412Z,9.1
2022-11-10T11:22:02.758Z,9.1
2022-11-10T11:23:11.343Z,7.8
2022-11-10T11:24:19.709Z,7.8
2022-11-10T11:25:28.040Z,7.8
2022-11-10T11:26:36.639Z,6.8
2022-11-10T11:27:45.025Z,6.8
2022-11-10T11:28:53.380Z,6.8
2022-11-10T11:30:01.977Z,6.2
2022-11-10T11:31:10.274Z,6.2
2022-11-10T11:32:18.663Z,6.2
2022-11-10T11:33:27.224Z,11
2022-11-10T11:34:35.583Z,11
2022-11-10T11:35:43.912Z,11
2022-11-10T11:36:52.488Z,8.3
2022-11-10T11:38:00.862Z,8.3
2022-11-10T11:39:09.197Z,8.3
2022-11-10T11:40:17.742Z,7.2
2022-11-10T11:41:26.105Z,7.2
2022-11-10T11:42:34.473Z,7.2
2022-11-10T11:43:43.020Z,7.4
2022-11-10T11:44:51.382Z,7.4
2022-11-10T11:45:59.735Z,7.4
2022-11-10T11:47:08.278Z,10.8
2022-11-10T11:48:16.656Z,10.8
2022-11-10T11:49:24.986Z,10.8
2022-11-10T11:50:33.584Z,7.5
2022-11-10T11:51:41.933Z,7.5
2022-11-10T11:52:50.284Z,7.5
2022-11-10T11:53:58.835Z,8.7
2022-11-10T11:55:07.174Z,8.7
2022-11-10T11:56:15.518Z,8.7
2022-11-10T11:57:24.069Z,9.1
2022-11-10T11:58:32.399Z,9.1
2022-11-10T11:59:40.774Z,9.1
2022-11-10T12:00:49.343Z,8.4
2022-11-10T12:01:57.682Z,8.4
2022-11-10T12:03:06.062Z,8.4
2022-11-10T12:04:14.613Z,6.2
2022-11-10T12:05:22.987Z,6.2
2022-11-10T12:06:31.405Z,6.2
2022-11-10T12:07:39.924Z,8.9
2022-11-10T12:08:48.249Z,8.9
2022-11-10T12:09:56.628Z,8.9
2022-11-10T12:11:05.185Z,8.6
2022-11-10T12:12:13.518Z,8.6
2022-11-10T12:13:21.860Z,8.6
2022-11-10T12:14:30.402Z,11
2022-11-10T12:15:38.740Z,11
2022-11-10T12:16:47.074Z,11
2022-11-10T12:17:55.633Z,10.8
2022-11-10T12:19:04.814Z,10.8
2022-11-10T12:20:13.206Z,10.8
2022-11-10T12:21:21.703Z,9.1
2022-11-10T12:22:30.062Z,9.1
2022-11-10T12:23:38.445Z,9.1
2022-11-10T12:24:46.995Z,9.2
2022-11-10T12:25:55.363Z,9.2
2022-11-10T12:27:03.713Z,9.2
2022-11-10T12:28:12.261Z,11
2022-11-10T12:29:20.603Z,11
2022-11-10T12:30:28.936Z,11
2022-11-10T12:31:37.483Z,10
2022-11-10T12:32:45.824Z,10
2022-11-10T12:33:54.153Z,10
2022-11-10T12:35:02.720Z,9.6
2022-11-10T12:36:11.072Z,9.6
2022-11-10T12:37:22.310Z,9.6
2022-11-10T12:38:27.943Z,11.8
2022-11-10T12:39:36.278Z,11.8
2022-11-10T12:40:44.625Z,11.8
2022-11-10T12:41:53.183Z,8.1
2022-11-10T12:43:01.531Z,8.1
2022-11-10T12:44:09.880Z,8.1
2022-11-10T12:45:18.453Z,10.6
2022-11-10T12:46:26.786Z,10.6
2022-11-10T12:47:35.168Z,10.6
2022-11-10T12:48:43.717Z,8.2
2022-11-10T12:49:52.061Z,8.2
2022-11-10T12:51:00.437Z,8.2
2022-11-10T12:52:09.057Z,8.5
2022-11-10T12:53:17.345Z,8.5
2022-11-10T12:54:25.733Z,8.5
2022-11-10T12:55:34.280Z,6.6
2022-11-10T12:56:42.694Z,6.6
2022-11-10T12:57:51.024Z,6.6
2022-11-10T12:58:59.569Z,12
2022-11-10T13:00:07.900Z,12
2022-11-10T13:01:16.357Z,12
2022-11-10T13:02:24.850Z,9.9
2022-11-10T13:03:33.195Z,9.9
2022-11-10T13:04:41.518Z,9.9
2022-11-10T13:05:50.059Z,7.6
2022-11-10T13:06:58.520Z,7.6
2022-11-10T13:08:06.828Z,7.6
2022-11-10T13:09:15.358Z,8.1
2022-11-10T13:10:23.690Z,8.1
2022-11-10T13:11:32.035Z,8.1
2022-11-10T13:12:40.581Z,8.6
2022-11-10T13:13:48.929Z,8.6
2022-11-10T13:14:57.276Z,8.6
2022-11-10T13:16:05.846Z,7.5
2022-11-10T13:17:14.197Z,7.5
2022-11-10T13:18:22.799Z,7.5
2022-11-10T13:19:31.110Z,9.2
2022-11-10T13:20:39.435Z,9.2
2022-11-10T13:21:47.805Z,9.2
2022-11-10T13:22:56.390Z,8.6
2022-11-10T13:24:04.880Z,8.6
2022-11-10T13:25:13.112Z,8.6
2022-11-10T13:26:21.639Z,8
2022-11-10T13:27:29.967Z,8
2022-11-10T13:28:38.310Z,8
2022-11-10T13:29:46.867Z,9.5
2022-11-10T13:30:55.234Z,9.5
2022-11-10T13:32:03.580Z,9.5
2022-11-10T13:33:12.135Z,11.3
2022-11-10T13:34:20.509Z,11.3
2022-11-10T13:35:28.898Z,11.3
2022-11-10T13:36:37.416Z,7.5
2022-11-10T13:37:45.818Z,7.5
2022-11-10T13:38:54.172Z,7.5
2022-11-10T13:40:02.774Z,9.9
2022-11-10T13:41:11.086Z,9.9
2022-11-10T13:42:19.448Z,9.9
2022-11-10T13:43:27.989Z,8
2022-11-10T13:44:36.351Z,8
2022-11-10T13:45:44.709Z,8
2022-11-10T13:46:53.286Z,8.7
2022-11-10T13:48:01.632Z,8.7
2022-11-10T13:49:14.317Z,8.7
2022-11-10T13:50:18.562Z,6.9
2022-11-10T13:51:26.914Z,6.9
2022-11-10T13:52:35.247Z,6.9
2022-11-10T13:53:43.814Z,10
2022-11-10T13:54:52.167Z,10
2022-11-10T13:56:00.549Z,10
2022-11-10T13:57:09.074Z,9.7
2022-11-10T13:58:17.419Z,9.7
2022-11-10T13:59:25.764Z,9.7
2022-11-10T14:00:34.334Z,8
2022-11-10T14:01:42.661Z,8
2022-11-10T14:02:51.044Z,8
2022-11-10T14:03:59.683Z,8.3
2022-11-10T14:05:07.952Z,8.3
2022-11-10T14:06:16.309Z,8.3
2022-11-10T14:07:24.867Z,9.3
2022-11-10T14:08:33.255Z,9.3
2022-11-10T14:09:41.586Z,9.3
2022-11-10T14:10:50.144Z,10.8
2022-11-10T14:11:58.503Z,10.8
2022-11-10T14:13:06.819Z,10.8
2022-11-10T14:14:15.379Z,8.9
2022-11-10T14:15:23.782Z,8.9
2022-11-10T14:16:32.106Z,8.9
2022-11-10T14:17:40.684Z,6.9
2022-11-10T14:18:49.023Z,6.9
2022-11-10T14:19:57.360Z,6.9
2022-11-10T14:21:05.916Z,11.4
2022-11-10T14:22:14.262Z,11.4
2022-11-10T14:23:22.592Z,11.4
2022-11-10T14:24:31.162Z,8.5
2022-11-10T14:25:39.521Z,8.5
2022-11-10T14:26:47.862Z,8.5
2022-11-10T14:27:58.317Z,9.6
2022-11-10T14:29:04.748Z,9.6
2022-11-10T14:30:13.087Z,9.6
2022-11-10T15:03:15.301Z,0
2022-11-10T15:04:23.506Z,0
2022-11-10T15:05:31.863Z,0
2022-11-10T15:06:44.495Z,8.9
2022-11-10T15:07:48.853Z,8.9
2022-11-10T15:08:57.183Z,8.9
2022-11-10T15:10:05.768Z,11.6
2022-11-10T15:11:14.144Z,11.6
2022-11-10T15:12:22.508Z,11.6
2022-11-10T15:13:31.113Z,10.8
2022-11-10T15:14:39.482Z,10.8
2022-11-10T15:15:47.846Z,10.8
2022-11-10T15:16:56.486Z,12.8
2022-11-10T15:18:04.860Z,12.8
2022-11-10T15:19:13.381Z,12.8
2022-11-10T15:20:21.827Z,7.4
2022-11-10T15:21:30.188Z,7.4
2022-11-10T15:22:38.534Z,7.4
2022-11-10T15:23:47.115Z,18.799999
2022-11-10T15:24:55.474Z,18.799999
2022-11-10T15:26:03.849Z,18.799999
2022-11-10T15:27:12.410Z,7.1
2022-11-10T15:28:21.162Z,7.1
2022-11-10T15:29:29.182Z,7.1
2022-11-10T15:30:37.770Z,13.3
2022-11-10T15:31:46.134Z,13.3
2022-11-10T15:32:58.078Z,13.3
2022-11-10T15:34:03.093Z,11.9
2022-11-10T15:35:11.569Z,11.9
2022-11-10T15:36:19.825Z,11.9
2022-11-10T15:37:30.710Z,9.4
2022-11-10T15:38:36.764Z,9.4
2022-11-10T15:39:45.169Z,9.4
2022-11-10T15:40:53.726Z,10
2022-11-10T15:42:02.078Z,10
2022-11-10T15:43:10.434Z,10
2022-11-10T15:44:19.069Z,10.3
2022-11-10T15:45:27.456Z,10.3
2022-11-10T15:46:35.820Z,10.3
2022-11-10T15:47:44.426Z,11.2
2022-11-10T15:48:52.797Z,11.2
2022-11-10T15:50:01.162Z,11.2
2022-11-10T15:51:09.878Z,9.3
2022-11-10T15:52:18.085Z,9.3
2022-11-10T15:53:26.482Z,9.3
2022-11-10T15:54:35.040Z,11.3
2022-11-10T15:55:43.408Z,11.3
2022-11-10T15:56:51.795Z,11.3
2022-11-10T15:58:00.339Z,9.6
2022-11-10T15:59:08.764Z,9.6
2022-11-10T16:00:17.125Z,9.6
2022-11-10T16:01:25.768Z,11.5
2022-11-10T16:02:34.096Z,11.5
2022-11-10T16:03:42.455Z,11.5
2022-11-10T16:04:53.382Z,13.2
2022-11-10T16:05:59.398Z,13.2
2022-11-10T16:07:07.881Z,13.2
2022-11-10T16:08:16.337Z,11.9
2022-11-10T16:09:24.717Z,11.9
2022-11-10T16:10:33.083Z,11.9